createdAt,value
2022-09-02T00:02:32.952Z,74.98
2022-09-02T00:07:55.288Z,74.95
2022-09-02T00:13:18.909Z,75.42
2022-09-02T00:18:43.147Z,75.98
2022-09-02T00:24:08.077Z,76.56
2022-09-02T00:29:30.001Z,76.63
2022-09-02T00:34:51.852Z,76.46
2022-09-02T00:40:14.476Z,75.90
2022-09-02T00:45:37.176Z,76.33
2022-09-02T00:50:59.043Z,77.22
2022-09-02T00:56:27.952Z,76.63
2022-09-02T01:01:50.627Z,77.01
2022-09-02T01:07:12.716Z,77.48
2022-09-02T01:12:34.832Z,76.95
2022-09-02T01:17:56.706Z,76.63
2022-09-02T01:23:19.028Z,76.68
2022-09-02T01:28:41.734Z,76.50
2022-09-02T01:34:03.646Z,78.06
2022-09-02T01:39:25.478Z,78.94
2022-09-02T01:44:47.344Z,79.03
2022-09-02T01:50:09.723Z,79.61
2022-09-02T01:55:32.904Z,80.47
2022-09-02T02:00:54.779Z,80.92
2022-09-02T02:06:17.796Z,81.45
2022-09-02T02:11:40.940Z,81.56
2022-09-02T02:17:03.064Z,81.77
2022-09-02T02:22:25.417Z,82.62
2022-09-02T02:27:47.282Z,83.37
2022-09-02T02:33:09.153Z,83.58
2022-09-02T02:38:32.600Z,83.92
2022-09-02T02:43:55.817Z,84.57
2022-09-02T02:49:17.772Z,84.43
2022-09-02T02:54:41.485Z,85.37
2022-09-02T03:00:10.327Z,87.16
2022-09-02T03:05:33.283Z,85.42
2022-09-02T03:10:55.816Z,87.17
2022-09-02T03:16:17.903Z,87.07
2022-09-02T03:21:40.877Z,85.75
2022-09-02T03:27:02.774Z,86.16
2022-09-02T03:32:26.300Z,86.62
2022-09-02T03:37:53.417Z,87.98
2022-09-02T03:43:15.574Z,88.56
2022-09-02T03:48:37.757Z,88.61
2022-09-02T03:54:00.156Z,89.03
2022-09-02T03:59:22.055Z,89.20
2022-09-02T04:04:44.003Z,89.25
2022-09-02T04:10:07.384Z,88.34
2022-09-02T04:15:29.328Z,85.57
2022-09-02T04:20:51.232Z,75.98
2022-09-02T04:26:16.563Z,59.87
2022-09-02T04:31:38.600Z,49.07
2022-09-02T04:37:00.472Z,43.88
2022-09-02T04:42:22.291Z,40.15
2022-09-02T04:47:44.093Z,36.25
2022-09-02T04:53:08.319Z,34.23
2022-09-02T04:58:30.165Z,30.54
2022-09-02T05:03:52.723Z,31.81
2022-09-02T05:09:14.567Z,29.26
2022-09-02T05:14:36.463Z,33.41
2022-09-02T05:19:58.531Z,39.15
2022-09-02T05:25:20.352Z,39.86
2022-09-02T05:30:42.992Z,39.71
2022-09-02T05:36:05.733Z,38.43
2022-09-02T05:41:28.149Z,32.42
2022-09-02T05:46:50.011Z,28.11
2022-09-02T05:52:13.311Z,24.37
2022-09-02T05:57:35.158Z,26.56
2022-09-02T06:02:57.247Z,27.28
2022-09-02T06:08:19.104Z,25.01
2022-09-02T06:13:42.335Z,25.49
2022-09-02T06:19:04.810Z,22.11
2022-09-02T06:24:27.796Z,22.86
2022-09-02T06:29:49.645Z,22.63
2022-09-02T06:35:11.480Z,23.36
2022-09-02T06:40:35.611Z,22.24
2022-09-02T06:45:57.533Z,22.04
2022-09-02T06:51:28.399Z,21.98
2022-09-02T06:56:50.737Z,21.08
2022-09-02T07:02:13.253Z,21.27
2022-09-02T07:07:40.784Z,22.57
2022-09-02T07:13:02.634Z,22.17
2022-09-02T07:18:24.486Z,20.56
2022-09-02T07:23:46.318Z,22.48
2022-09-02T07:35:07.556Z,21.05
2022-09-02T07:40:29.478Z,19.80
2022-09-02T07:45:51.363Z,20.46
2022-09-02T07:51:13.260Z,21.24
2022-09-02T07:56:35.123Z,20.33
2022-09-02T08:01:57.122Z,22.22
2022-09-02T08:07:18.983Z,21.91
2022-09-02T08:12:41.659Z,21.33
2022-09-02T08:18:05.096Z,19.83
2022-09-02T08:23:36.562Z,20.57
2022-09-02T08:28:58.837Z,20.53
2022-09-02T08:34:20.769Z,21.45
2022-09-02T08:39:43.124Z,22.48
2022-09-02T08:45:12.248Z,20.61
2022-09-02T08:50:37.474Z,20.22
2022-09-02T08:56:02.700Z,19.95
2022-09-02T09:02:12.640Z,18.65
2022-09-02T09:07:54.466Z,21.78
2022-09-02T09:13:42.422Z,23.95
2022-09-02T09:19:12.145Z,22.49
2022-09-02T09:24:39.942Z,22.11
2022-09-02T09:30:01.765Z,23.98
2022-09-02T09:35:24.544Z,21.69
2022-09-02T09:40:46.498Z,22.17
2022-09-02T09:46:29.752Z,22.77
2022-09-02T09:51:55.077Z,22.14
2022-09-02T09:57:21.435Z,23.16
2022-09-02T10:02:52.530Z,23.35
2022-09-02T10:08:15.547Z,25.89
2022-09-02T10:13:38.239Z,27.04
2022-09-02T10:19:26.286Z,26.84
2022-09-02T10:25:33.880Z,28.41
2022-09-02T10:31:11.190Z,29.34
2022-09-02T10:36:41.554Z,30.77
2022-09-02T10:42:21.000Z,30.73
2022-09-02T10:47:45.961Z,29.19
2022-09-02T10:53:26.260Z,31.30
2022-09-02T10:59:07.781Z,31.03
2022-09-02T11:04:43.086Z,31.04
2022-09-02T11:10:26.466Z,30.27
2022-09-02T11:15:52.580Z,30.95
2022-09-02T11:21:37.210Z,30.80
2022-09-02T11:27:41.566Z,31.37
2022-09-02T11:33:14.137Z,31.23
2022-09-02T11:38:51.146Z,31.40
2022-09-02T11:44:34.310Z,31.34
2022-09-02T11:50:24.112Z,30.61
2022-09-02T11:56:29.295Z,31.41
2022-09-02T12:01:55.622Z,30.80
2022-09-02T12:07:18.162Z,30.74
2022-09-02T12:12:39.920Z,30.23
2022-09-02T12:18:10.310Z,30.59
2022-09-02T12:23:51.039Z,30.51
2022-09-02T12:29:18.808Z,29.89
2022-09-02T12:34:43.898Z,29.67
2022-09-02T12:40:15.592Z,31.00
2022-09-02T12:45:42.937Z,31.11
2022-09-02T12:51:05.270Z,30.32
2022-09-02T12:56:27.218Z,30.49
2022-09-02T13:02:04.037Z,30.25
2022-09-02T13:07:34.886Z,30.23
2022-09-02T13:12:59.413Z,30.02
2022-09-02T13:18:33.305Z,30.02
2022-09-02T13:24:03.881Z,29.57
2022-09-02T13:30:23.777Z,29.04
2022-09-02T13:35:46.339Z,29.72
2022-09-02T13:41:09.333Z,30.49
2022-09-02T13:46:31.424Z,31.14
2022-09-02T13:51:55.833Z,31.16
2022-09-02T13:57:26.981Z,31.27
2022-09-02T14:03:06.376Z,32.01
2022-09-02T14:08:30.432Z,32.59
2022-09-02T14:13:52.839Z,32.88
2022-09-02T14:19:17.800Z,33.33
2022-09-02T14:24:40.994Z,32.85
2022-09-02T14:30:03.435Z,32.94
2022-09-02T14:35:25.462Z,33.29
2022-09-02T14:40:47.624Z,33.39
2022-09-02T14:46:24.055Z,32.36
2022-09-02T14:51:49.307Z,32.23
2022-09-02T14:57:32.965Z,32.67
2022-09-02T15:02:57.324Z,33.31
2022-09-02T15:08:19.836Z,33.83
2022-09-02T15:13:41.676Z,33.25
2022-09-02T15:19:03.514Z,33.18
2022-09-02T15:24:25.449Z,33.08
2022-09-02T15:29:47.406Z,33.50
2022-09-02T15:35:10.055Z,33.92
2022-09-02T15:40:32.168Z,33.58
2022-09-02T15:45:54.026Z,33.49
2022-09-02T15:51:18.442Z,33.53
2022-09-02T15:56:42.237Z,33.08
2022-09-02T16:02:04.122Z,33.34
2022-09-02T16:07:25.927Z,33.47
2022-09-02T16:12:47.723Z,33.35
2022-09-02T16:18:09.591Z,33.70
2022-09-02T16:23:31.644Z,33.27
2022-09-02T16:28:59.843Z,33.14
2022-09-02T16:34:21.698Z,34.40
2022-09-02T16:39:43.553Z,35.73
2022-09-02T16:45:05.999Z,36.08
2022-09-02T16:50:27.800Z,36.66
2022-09-02T16:55:49.585Z,36.25
2022-09-02T17:01:12.012Z,37.22
2022-09-02T17:06:35.786Z,37.81
2022-09-02T17:12:00.356Z,39.46
2022-09-02T17:17:22.177Z,38.76
2022-09-02T17:22:44.649Z,39.01
2022-09-02T17:28:07.844Z,39.65
2022-09-02T17:33:29.674Z,40.43
2022-09-02T17:39:00.042Z,41.18
2022-09-02T17:44:24.945Z,41.34
2022-09-02T17:49:47.374Z,41.72
2022-09-02T17:55:09.410Z,42.01
2022-09-02T18:00:31.460Z,42.21
2022-09-02T18:06:04.569Z,42.55
2022-09-02T18:11:26.629Z,43.17
2022-09-02T18:17:18.021Z,43.73
2022-09-02T18:23:00.673Z,44.66
2022-09-02T18:28:57.920Z,44.78
2022-09-02T18:34:30.429Z,46.10
2022-09-02T18:40:27.242Z,47.44
2022-09-02T18:45:55.865Z,47.13
2022-09-02T18:51:35.764Z,48.76
2022-09-02T18:57:01.271Z,48.62
2022-09-02T19:03:01.228Z,49.90
2022-09-02T19:08:23.716Z,49.64
2022-09-02T19:13:48.428Z,49.48
2022-09-02T19:19:10.254Z,50.40
2022-09-02T19:24:39.545Z,51.18
2022-09-02T19:30:11.105Z,52.29
2022-09-02T19:35:34.959Z,54.43
2022-09-02T19:40:56.975Z,55.16
2022-09-02T19:46:55.792Z,55.85
2022-09-02T19:52:00.627Z,56.49
2022-09-02T19:57:22.535Z,57.50
2022-09-02T20:02:44.625Z,58.05
2022-09-02T20:08:07.237Z,57.50
2022-09-02T20:13:30.120Z,57.12
2022-09-02T20:18:53.590Z,58.36
2022-09-02T20:24:23.225Z,58.32
2022-09-02T20:30:14.238Z,59.38
2022-09-02T20:35:44.782Z,58.84
2022-09-02T20:41:21.569Z,60.14
2022-09-02T20:47:08.630Z,60.53
2022-09-02T20:52:39.867Z,60.18
2022-09-02T20:58:29.919Z,61.25
2022-09-02T21:03:55.313Z,60.82
2022-09-02T21:09:51.025Z,62.07
2022-09-02T21:15:25.072Z,61.42
2022-09-02T21:21:10.701Z,62.65
2022-09-02T21:26:50.135Z,62.21
2022-09-02T21:32:42.446Z,64.08
2022-09-02T21:38:10.913Z,62.89
2022-09-02T21:44:02.019Z,63.59
2022-09-02T21:49:48.673Z,64.44
2022-09-02T21:55:16.550Z,63.40
2022-09-02T22:00:52.568Z,63.61
2022-09-02T22:06:31.755Z,62.99
2022-09-02T22:12:05.301Z,65.02
2022-09-02T22:17:49.668Z,63.88
2022-09-02T22:23:31.850Z,65.73
2022-09-02T22:29:00.748Z,64.12
2022-09-02T22:34:23.468Z,64.46
2022-09-02T22:39:54.013Z,65.07
2022-09-02T22:45:21.697Z,64.49
2022-09-02T22:50:50.358Z,64.83
2022-09-02T22:56:13.508Z,65.13
2022-09-02T23:01:44.796Z,66.03
2022-09-02T23:07:07.586Z,65.30
2022-09-02T23:12:53.971Z,65.70
2022-09-02T23:18:28.193Z,66.11
2022-09-02T23:24:10.586Z,67.05
2022-09-02T23:29:32.865Z,67.08
2022-09-02T23:35:23.651Z,68.49
2022-09-02T23:41:05.306Z,69.65
2022-09-02T23:46:45.199Z,68.33
2022-09-02T23:52:22.639Z,68.71
2022-09-02T23:57:53.410Z,70.47
